Time;durP1;ratioP1;P1;durP2;ratioP2;P2;SDS_P1;SDS_P2;PMS_P1;PMS_P2;Temp;Humidity;BMP_temperature;BMP_pressure;BME280_temperature;BME280_humidity;BME280_pressure;Samples;Min_cycle;Max_cycle;Signal;HPM_P1;HPM_P2
2023/12/17 00:00:48;;;;;;;88.28;83.68;;;;;;;11.04;70.21;103731.56;5015030;28;20040;-73
2023/12/17 00:03:13;;;;;;;89.85;85.68;;;;;;;11.05;70.07;103734.06;5029220;28;20473;-71
2023/12/17 00:05:39;;;;;;;94.28;89.18;;;;;;;11.08;69.93;103737.44;5027629;28;20073;-73
2023/12/17 00:08:04;;;;;;;86.47;82.05;;;;;;;11.09;69.74;103742.69;5013671;28;20064;-71
2023/12/17 00:10:30;;;;;;;85.18;80.95;;;;;;;11.10;69.75;103728.16;5015210;28;20029;-72
2023/12/17 00:12:55;;;;;;;91.57;86.93;;;;;;;11.10;69.52;103720.03;5025504;28;20060;-72
2023/12/17 00:15:21;;;;;;;90.22;85.95;;;;;;;11.11;69.83;103724.41;5015990;28;20042;-70
2023/12/17 00:17:46;;;;;;;92.28;87.30;;;;;;;11.12;69.71;103712.59;5033627;28;20044;-71
2023/12/17 00:20:12;;;;;;;90.35;86.22;;;;;;;11.13;69.93;103716.13;5029674;28;20491;-70
2023/12/17 00:22:37;;;;;;;95.78;90.97;;;;;;;11.12;70.01;103718.00;5013550;28;20480;-71
2023/12/17 00:25:03;;;;;;;92.57;88.28;;;;;;;11.11;69.94;103713.59;5013794;28;20104;-73
2023/12/17 00:27:28;;;;;;;93.15;88.20;;;;;;;11.12;69.82;103711.75;5019379;28;20045;-71
2023/12/17 00:29:54;;;;;;;94.65;89.45;;;;;;;11.11;69.86;103699.22;5028758;28;20036;-71
2023/12/17 00:32:19;;;;;;;91.75;86.97;;;;;;;11.12;69.92;103698.22;5032908;28;20049;-71
2023/12/17 00:34:45;;;;;;;93.35;88.45;;;;;;;11.13;69.77;103697.19;5032617;28;20128;-70
2023/12/17 00:37:10;;;;;;;93.63;89.05;;;;;;;11.15;69.86;103695.16;5033442;28;20466;-72
2023/12/17 00:39:35;;;;;;;94.65;89.85;;;;;;;11.15;69.84;103692.47;5030311;28;20060;-71
2023/12/17 00:42:01;;;;;;;91.00;86.32;;;;;;;11.14;69.69;103688.91;5031924;28;20107;-71
2023/12/17 00:44:26;;;;;;;91.10;86.70;;;;;;;11.14;69.80;103686.22;5014305;28;20493;-70
2023/12/17 00:46:51;;;;;;;89.25;84.65;;;;;;;11.15;70.00;103676.22;5016765;28;20037;-71
2023/12/17 00:49:17;;;;;;;95.80;91.30;;;;;;;11.14;69.86;103674.56;5014596;28;20478;-72
2023/12/17 00:51:42;;;;;;;92.82;88.25;;;;;;;11.13;69.93;103673.69;5014266;28;20555;-72
2023/12/17 00:54:07;;;;;;;88.43;84.18;;;;;;;11.13;70.08;103678.25;5008285;28;20041;-71
2023/12/17 00:56:33;;;;;;;94.50;89.30;;;;;;;11.11;69.97;103675.72;5032079;28;20553;-71
2023/12/17 00:58:59;;;;;;;88.68;84.25;;;;;;;11.12;69.96;103682.00;5033938;28;20501;-72
2023/12/17 01:01:25;;;;;;;90.53;86.32;;;;;;;11.12;70.11;103677.41;5032254;28;20041;-72
2023/12/17 01:03:50;;;;;;;90.35;85.57;;;;;;;11.12;69.97;103684.69;5031145;28;20087;-72
2023/12/17 01:06:15;;;;;;;89.25;84.75;;;;;;;11.12;69.93;103666.59;5024765;28;20038;-72
2023/12/17 01:08:41;;;;;;;89.38;84.80;;;;;;;11.15;69.93;103670.81;5014145;28;20026;-71
2023/12/17 01:11:06;;;;;;;90.35;85.43;;;;;;;11.15;70.09;103674.34;5014339;28;20034;-71
2023/12/17 01:13:32;;;;;;;92.80;87.97;;;;;;;11.16;70.05;103672.50;5015946;28;20038;-71
2023/12/17 01:15:57;;;;;;;94.75;90.03;;;;;;;11.16;70.20;103661.66;5032260;28;20026;-71
2023/12/17 01:18:22;;;;;;;90.43;85.93;;;;;;;11.17;69.72;103666.09;5029576;28;20037;-71
2023/12/17 01:20:48;;;;;;;90.00;85.82;;;;;;;11.19;69.79;103661.34;5014227;28;20041;-72
2023/12/17 01:23:13;;;;;;;90.85;86.40;;;;;;;11.18;69.74;103667.75;5030425;28;21977;-71
2023/12/17 01:25:39;;;;;;;91.00;86.30;;;;;;;11.20;69.78;103668.44;5013939;28;20046;-74
2023/12/17 01:28:04;;;;;;;90.82;85.90;;;;;;;11.18;69.87;103665.06;5015461;28;20021;-71
2023/12/17 01:30:30;;;;;;;92.60;87.20;;;;;;;11.18;69.78;103670.47;5031310;28;20025;-70
2023/12/17 01:32:55;;;;;;;93.63;88.50;;;;;;;11.19;70.13;103666.75;5028079;28;20049;-71
2023/12/17 01:35:20;;;;;;;94.85;89.95;;;;;;;11.19;69.97;103678.41;5028766;28;20041;-72
2023/12/17 01:37:46;;;;;;;96.57;91.65;;;;;;;11.20;69.92;103674.69;5018168;28;20139;-71
2023/12/17 01:40:11;;;;;;;88.93;84.90;;;;;;;11.21;69.94;103670.09;5023810;28;20033;-71
2023/12/17 01:42:37;;;;;;;93.13;87.93;;;;;;;11.22;69.97;103666.41;5018026;28;20044;-71
2023/12/17 01:45:03;;;;;;;94.03;89.13;;;;;;;11.21;69.94;103665.56;5015649;28;20479;-72
2023/12/17 01:47:29;;;;;;;88.40;84.25;;;;;;;11.21;69.85;103670.97;5019645;28;20046;-70
2023/12/17 01:49:54;;;;;;;90.57;85.47;;;;;;;11.22;69.73;103669.94;5020568;28;20474;-71
2023/12/17 01:52:20;;;;;;;96.00;91.00;;;;;;;11.23;69.80;103665.38;5011860;28;20089;-71
2023/12/17 01:54:46;;;;;;;90.70;85.97;;;;;;;11.24;69.67;103659.78;5031172;28;20045;-70
2023/12/17 01:57:12;;;;;;;86.80;82.20;;;;;;;11.24;69.80;103665.19;5021087;28;20138;-71
2023/12/17 01:59:38;;;;;;;89.55;85.03;;;;;;;11.23;69.90;103668.06;5012555;28;20038;-71
2023/12/17 02:02:03;;;;;;;93.50;88.57;;;;;;;11.23;69.87;103674.31;5014061;28;20100;-71
2023/12/17 02:04:29;;;;;;;96.95;91.90;;;;;;;11.25;69.91;103668.75;5031343;28;20025;-72
2023/12/17 02:06:54;;;;;;;92.15;87.85;;;;;;;11.25;69.92;103666.03;5031801;28;20025;-71
2023/12/17 02:09:19;;;;;;;90.88;86.03;;;;;;;11.25;69.83;103664.16;5029221;28;20073;-69
2023/12/17 02:11:45;;;;;;;97.10;92.18;;;;;;;11.27;69.94;103664.00;5029014;28;20465;-71
2023/12/17 02:14:10;;;;;;;95.28;90.32;;;;;;;11.27;69.83;103669.41;5031398;28;20033;-71
2023/12/17 02:16:35;;;;;;;100.18;94.30;;;;;;;11.29;69.76;103677.34;5030390;28;20124;-71
2023/12/17 02:19:01;;;;;;;93.35;88.22;;;;;;;11.29;69.91;103688.16;5022310;28;20065;-70
2023/12/17 02:21:27;;;;;;;98.82;93.45;;;;;;;11.30;69.45;103688.00;5026275;28;20037;-71
2023/12/17 02:23:53;;;;;;;96.80;91.85;;;;;;;11.31;69.57;103683.44;5021221;28;20406;-72
2023/12/17 02:26:18;;;;;;;94.15;89.25;;;;;;;11.32;69.74;103679.72;5012536;28;20122;-71
2023/12/17 02:28:47;;;;;;;91.97;87.22;;;;;;;11.34;69.70;103677.66;5018880;28;20589;-71
2023/12/17 02:31:12;;;;;;;100.38;94.60;;;;;;;11.33;69.69;103674.13;5031766;28;20116;-70
2023/12/17 02:33:38;;;;;;;93.93;88.88;;;;;;;11.34;69.50;103672.25;5030210;28;20165;-71
2023/12/17 02:36:03;;;;;;;90.32;85.80;;;;;;;11.35;69.47;103671.25;5027250;28;20056;-72
2023/12/17 02:38:29;;;;;;;97.22;92.32;;;;;;;11.34;69.55;103669.53;5012880;28;20050;-71
2023/12/17 02:40:54;;;;;;;95.68;90.47;;;;;;;11.34;69.77;103673.13;5028511;28;20064;-71
2023/12/17 02:43:19;;;;;;;92.15;87.53;;;;;;;11.34;69.58;103674.94;5018217;28;20108;-71
2023/12/17 02:45:45;;;;;;;95.90;90.57;;;;;;;11.36;69.44;103676.47;5021973;28;20528;-70
2023/12/17 02:48:10;;;;;;;96.65;91.47;;;;;;;11.36;69.58;103671.06;5020768;28;20112;-72
2023/12/17 02:50:36;;;;;;;97.68;91.85;;;;;;;11.36;69.37;103670.22;5012120;28;20129;-70
2023/12/17 02:53:01;;;;;;;95.95;90.82;;;;;;;11.36;69.53;103662.09;5019213;28;20121;-71
2023/12/17 02:55:26;;;;;;;96.68;91.32;;;;;;;11.35;69.57;103658.56;5023125;28;20124;-73
2023/12/17 02:57:52;;;;;;;99.40;93.40;;;;;;;11.36;69.71;103662.94;5018285;28;20068;-70
2023/12/17 03:00:17;;;;;;;96.43;91.35;;;;;;;11.38;69.44;103657.34;5011854;28;20045;-71
2023/12/17 03:02:43;;;;;;;104.72;98.45;;;;;;;11.37;69.60;103661.94;5012024;28;20485;-70
2023/12/17 03:05:10;;;;;;;99.75;94.20;;;;;;;11.37;69.45;103661.94;5015880;28;20033;-71
2023/12/17 03:07:35;;;;;;;96.40;91.05;;;;;;;11.38;69.58;103658.19;5029320;28;20037;-72
2023/12/17 03:10:00;;;;;;;91.65;86.90;;;;;;;11.37;69.38;103655.69;5028827;28;20382;-71
2023/12/17 03:12:26;;;;;;;93.10;88.60;;;;;;;11.36;69.58;103667.50;5021469;28;20026;-71
2023/12/17 03:14:51;;;;;;;92.22;87.22;;;;;;;11.36;69.45;103653.97;5010970;28;20047;-71
2023/12/17 03:17:17;;;;;;;92.93;88.32;;;;;;;11.36;69.51;103664.81;5017787;28;20064;-70
2023/12/17 03:19:42;;;;;;;97.03;90.75;;;;;;;11.35;69.44;103666.66;5020186;28;20029;-71
2023/12/17 03:22:08;;;;;;;96.90;91.63;;;;;;;11.33;69.59;103667.88;5012019;28;20042;-70
2023/12/17 03:24:33;;;;;;;91.97;87.57;;;;;;;11.34;69.88;103661.41;5011126;28;20056;-71
2023/12/17 03:26:58;;;;;;;100.38;94.97;;;;;;;11.34;69.98;103653.31;5010762;28;20034;-71
2023/12/17 03:29:24;;;;;;;94.50;90.00;;;;;;;11.35;69.79;103655.00;5015338;28;20048;-71
2023/12/17 03:31:49;;;;;;;99.55;94.25;;;;;;;11.34;69.45;103647.88;5028204;28;20041;-71
2023/12/17 03:34:14;;;;;;;94.85;89.88;;;;;;;11.33;69.42;103641.63;5030398;28;20041;-70
2023/12/17 03:36:40;;;;;;;93.97;88.90;;;;;;;11.33;69.38;103655.19;5032074;28;20034;-71
2023/12/17 03:39:06;;;;;;;92.35;87.68;;;;;;;11.34;69.55;103642.47;5012247;28;20470;-70
2023/12/17 03:41:31;;;;;;;95.22;90.25;;;;;;;11.34;69.62;103642.47;5029927;28;20034;-70
2023/12/17 03:43:57;;;;;;;93.43;88.75;;;;;;;11.34;69.60;103632.53;5011829;28;20033;-71
2023/12/17 03:46:24;;;;;;;93.65;89.00;;;;;;;11.32;69.72;103637.25;5029913;28;20041;-71
2023/12/17 03:48:50;;;;;;;96.07;91.13;;;;;;;11.32;69.49;103636.44;5023208;28;20041;-70
2023/12/17 03:51:16;;;;;;;98.05;92.88;;;;;;;11.31;69.75;103640.97;5010317;28;20394;-71
2023/12/17 03:53:41;;;;;;;96.18;90.85;;;;;;;11.32;69.72;103641.84;5020221;28;20033;-71
2023/12/17 03:56:11;;;;;;;94.90;90.03;;;;;;;11.32;69.63;103629.16;5027690;28;20045;-71
2023/12/17 03:58:38;;;;;;;97.88;92.80;;;;;;;11.33;69.44;103624.56;5022807;28;20036;-71
2023/12/17 04:01:04;;;;;;;93.90;89.15;;;;;;;11.32;69.51;103623.72;5029395;28;20037;-71
2023/12/17 04:03:30;;;;;;;95.13;90.30;;;;;;;11.33;69.57;103620.00;5029479;28;20064;-72
2023/12/17 04:05:58;;;;;;;98.35;93.35;;;;;;;11.34;69.56;103615.41;5013072;28;20123;-72
2023/12/17 04:08:23;;;;;;;91.43;87.18;;;;;;;11.35;69.54;103609.84;5025915;28;20029;-70
2023/12/17 04:10:49;;;;;;;93.22;88.22;;;;;;;11.33;69.59;103609.16;5017030;28;20033;-72
2023/12/17 04:13:14;;;;;;;92.28;87.80;;;;;;;11.32;69.89;103612.91;5018160;28;20061;-72
2023/12/17 04:15:39;;;;;;;99.10;93.38;;;;;;;11.31;69.68;103618.47;5011493;28;20030;-71
2023/12/17 04:18:05;;;;;;;96.53;91.55;;;;;;;11.33;69.43;103619.16;5011117;28;20045;-72
2023/12/17 04:20:30;;;;;;;92.97;88.30;;;;;;;11.35;69.65;103622.53;5022298;28;20112;-71
2023/12/17 04:22:56;;;;;;;94.10;89.45;;;;;;;11.33;69.75;103611.88;5011968;28;20037;-71
2023/12/17 04:25:22;;;;;;;96.68;92.00;;;;;;;11.32;69.85;103607.50;5028383;28;20577;-71
2023/12/17 04:27:47;;;;;;;94.70;90.10;;;;;;;11.33;69.74;103611.03;5028948;28;20116;-71
2023/12/17 04:30:12;;;;;;;94.65;89.97;;;;;;;11.33;69.91;103605.63;5030563;28;20037;-71
2023/12/17 04:32:38;;;;;;;98.97;93.05;;;;;;;11.32;69.86;103601.25;5026845;28;20045;-70
2023/12/17 04:35:04;;;;;;;101.63;95.70;;;;;;;11.32;69.57;103602.09;5011438;28;20033;-71
2023/12/17 04:37:29;;;;;;;97.15;91.50;;;;;;;11.33;69.77;103609.16;5027361;28;20064;-71
2023/12/17 04:39:55;;;;;;;97.05;91.55;;;;;;;11.35;69.54;103606.28;5017761;28;20035;-71
2023/12/17 04:42:21;;;;;;;92.72;88.07;;;;;;;11.36;69.55;103599.84;5020464;28;20478;-71
2023/12/17 04:44:46;;;;;;;98.28;92.53;;;;;;;11.37;69.62;103593.44;5032475;28;20452;-71
2023/12/17 04:47:12;;;;;;;95.57;91.07;;;;;;;11.36;69.62;103605.25;5032323;28;20037;-71
2023/12/17 04:49:38;;;;;;;91.60;87.40;;;;;;;11.34;69.79;103607.28;5033888;28;20052;-70
2023/12/17 04:52:04;;;;;;;92.50;87.43;;;;;;;11.32;69.58;103603.94;5031305;28;20034;-71
2023/12/17 04:54:29;;;;;;;94.60;89.88;;;;;;;11.31;69.71;103611.19;5030881;28;20041;-72
2023/12/17 04:56:55;;;;;;;87.97;83.28;;;;;;;11.31;69.65;103600.38;5032630;28;20084;-71
2023/12/17 04:59:24;;;;;;;92.65;87.97;;;;;;;11.31;69.56;103600.38;5014660;28;20033;-70
2023/12/17 05:01:49;;;;;;;;;;;;;;;11.31;69.66;103607.66;5018087;28;20045;-70
2023/12/17 05:04:15;;;;;;;84.50;80.13;;;;;;;11.30;69.75;103604.13;5032070;28;19913;-73
2023/12/17 05:06:41;;;;;;;88.55;84.25;;;;;;;11.29;69.76;103602.44;5022335;28;20038;-71
2023/12/17 05:09:07;;;;;;;89.93;85.63;;;;;;;11.28;69.76;103603.44;5022234;28;20092;-71
2023/12/17 05:11:32;;;;;;;96.00;90.68;;;;;;;11.27;69.54;103597.19;5015108;28;20026;-71
2023/12/17 05:13:58;;;;;;;96.03;91.45;;;;;;;11.29;69.67;103597.03;5031680;28;20122;-72
2023/12/17 05:16:23;;;;;;;95.85;90.95;;;;;;;11.29;69.82;103601.56;5033619;28;20041;-71
2023/12/17 05:18:48;;;;;;;96.18;91.38;;;;;;;11.30;69.84;103606.81;5033728;28;20191;-71
2023/12/17 05:21:14;;;;;;;91.30;86.68;;;;;;;11.30;69.59;103603.28;5032795;28;20098;-72
2023/12/17 05:23:39;;;;;;;94.65;89.90;;;;;;;11.30;69.69;103600.56;5021149;28;20058;-70
2023/12/17 05:26:05;;;;;;;97.15;92.15;;;;;;;11.27;69.72;103599.91;5029000;28;20033;-71
2023/12/17 05:28:30;;;;;;;92.93;88.38;;;;;;;11.27;69.76;103599.06;5032774;28;20059;-72
2023/12/17 05:30:55;;;;;;;93.97;89.15;;;;;;;11.28;69.76;103595.31;5014921;28;20120;-71
2023/12/17 05:33:21;;;;;;;97.13;92.38;;;;;;;11.26;69.87;103592.81;5023202;28;20041;-71
2023/12/17 05:35:46;;;;;;;92.38;87.78;;;;;;;11.27;69.86;103602.59;5031596;28;20056;-71
2023/12/17 05:38:13;;;;;;;91.40;86.93;;;;;;;11.24;69.63;103597.56;5032486;28;20030;-71
2023/12/17 05:40:38;;;;;;;91.00;86.68;;;;;;;11.25;69.76;103598.41;5032774;28;20056;-71
2023/12/17 05:43:05;;;;;;;97.20;92.13;;;;;;;11.26;70.06;103597.38;5022420;28;20061;-71
2023/12/17 05:45:32;;;;;;;93.18;88.70;;;;;;;11.28;69.83;103600.75;5021655;28;20033;-71
2023/12/17 05:47:57;;;;;;;90.95;86.43;;;;;;;11.26;69.73;103598.22;5017711;28;20068;-72
2023/12/17 05:50:23;;;;;;;100.80;95.53;;;;;;;11.25;69.86;103601.94;5012463;28;20058;-72
2023/12/17 05:52:49;;;;;;;93.88;89.47;;;;;;;11.24;69.95;103600.25;5017508;28;20030;-70
2023/12/17 05:55:15;;;;;;;97.20;92.03;;;;;;;11.24;69.76;103600.25;5025136;28;20026;-71
2023/12/17 05:57:42;;;;;;;92.57;88.28;;;;;;;11.24;70.15;103597.56;5019396;28;20504;-70
2023/12/17 06:00:08;;;;;;;96.90;91.55;;;;;;;11.27;69.81;103590.94;5030119;28;20037;-72
2023/12/17 06:02:34;;;;;;;91.40;86.97;;;;;;;11.29;69.70;103588.03;5015647;28;20053;-71
2023/12/17 06:04:59;;;;;;;93.25;88.70;;;;;;;11.28;69.66;103595.31;5013171;28;20045;-71
2023/12/17 06:07:25;;;;;;;89.53;85.55;;;;;;;11.26;69.94;103590.13;5013215;28;20505;-71
2023/12/17 06:09:51;;;;;;;95.72;90.35;;;;;;;11.26;69.64;103597.38;5019449;28;20061;-71
2023/12/17 06:12:16;;;;;;;93.20;88.82;;;;;;;11.24;69.75;103589.44;5029560;28;20838;-71
2023/12/17 06:14:42;;;;;;;93.95;89.40;;;;;;;11.25;70.00;103592.97;5012746;28;20057;-71
2023/12/17 06:17:07;;;;;;;94.05;89.28;;;;;;;11.25;69.74;103591.13;5012646;28;20080;-71
2023/12/17 06:19:32;;;;;;;95.63;90.47;;;;;;;11.28;69.62;103592.63;5021586;28;20116;-71
2023/12/17 06:22:00;;;;;;;92.65;88.15;;;;;;;11.27;69.60;103589.06;5013001;28;20029;-72
2023/12/17 06:24:25;;;;;;;95.18;89.88;;;;;;;11.26;69.74;103584.69;5030280;28;20057;-71
2023/12/17 06:26:53;;;;;;;94.03;89.53;;;;;;;11.25;69.77;103593.81;5031888;28;20041;-71
2023/12/17 06:29:19;;;;;;;90.05;84.95;;;;;;;11.25;69.74;103596.53;5030398;28;20034;-70
2023/12/17 06:31:44;;;;;;;94.50;89.85;;;;;;;11.24;69.89;103589.44;5013589;28;20041;-70
2023/12/17 06:34:10;;;;;;;94.07;89.10;;;;;;;11.25;69.81;103590.28;5029938;28;20029;-71
2023/12/17 06:36:35;;;;;;;94.78;89.78;;;;;;;11.24;69.67;103597.56;5030705;28;20033;-71
2023/12/17 06:39:01;;;;;;;89.20;85.30;;;;;;;11.24;69.60;103592.16;5014003;28;20040;-71
2023/12/17 06:41:26;;;;;;;93.32;88.25;;;;;;;11.23;69.85;103597.72;5012156;28;20384;-72
2023/12/17 06:43:52;;;;;;;88.75;84.47;;;;;;;11.21;69.86;103605.16;5011973;28;20030;-72
2023/12/17 06:46:17;;;;;;;90.25;85.05;;;;;;;11.19;69.90;103601.81;5012414;28;20386;-70
2023/12/17 06:48:43;;;;;;;88.82;84.72;;;;;;;11.19;69.67;103597.25;5017930;28;20030;-70
2023/12/17 06:51:10;;;;;;;92.03;87.82;;;;;;;11.17;69.74;103599.28;5011510;28;20092;-71
2023/12/17 06:53:35;;;;;;;89.68;85.68;;;;;;;11.18;69.80;103600.97;5012798;28;20116;-71
2023/12/17 06:56:01;;;;;;;95.30;90.28;;;;;;;11.18;69.79;103595.53;5027941;28;20450;-71
2023/12/17 06:58:26;;;;;;;90.35;86.10;;;;;;;11.19;69.72;103594.53;5026365;28;20033;-72
2023/12/17 07:00:52;;;;;;;90.05;85.50;;;;;;;11.21;69.56;103595.22;5018234;28;20042;-73
2023/12/17 07:03:18;;;;;;;91.05;86.63;;;;;;;11.21;69.69;103581.69;5011903;28;20038;-71
2023/12/17 07:05:44;;;;;;;89.32;85.07;;;;;;;11.21;69.71;103592.50;5001819;28;20038;-71
2023/12/17 07:08:10;;;;;;;90.75;86.20;;;;;;;11.19;69.63;103586.44;5011438;28;20125;-71
2023/12/17 07:10:35;;;;;;;88.07;84.07;;;;;;;11.18;69.48;103594.72;5011645;28;20105;-72
2023/12/17 07:13:01;;;;;;;91.80;87.35;;;;;;;11.14;70.11;103583.41;5015513;28;20383;-70
2023/12/17 07:15:26;;;;;;;88.50;84.40;;;;;;;11.11;69.85;103589.16;5001813;28;20232;-72
2023/12/17 07:17:52;;;;;;;91.35;87.05;;;;;;;11.09;69.93;103584.94;5024910;28;20379;-72
2023/12/17 07:20:17;;;;;;;90.00;85.90;;;;;;;11.07;69.60;103590.53;5017503;28;20105;-71
2023/12/17 07:22:42;;;;;;;86.47;82.55;;;;;;;11.07;69.85;103592.41;5015648;28;20037;-72
2023/12/17 07:25:09;;;;;;;88.72;84.40;;;;;;;11.07;69.98;103595.94;5028764;28;20124;-71
2023/12/17 07:27:34;;;;;;;87.78;83.65;;;;;;;11.10;69.69;103597.47;5025358;28;20042;-71
2023/12/17 07:30:00;;;;;;;87.25;83.10;;;;;;;11.08;69.77;103594.91;5012452;28;20553;-71
2023/12/17 07:32:25;;;;;;;87.50;83.55;;;;;;;11.08;69.77;103596.78;5029178;28;20508;-72
2023/12/17 07:34:50;;;;;;;88.05;84.03;;;;;;;11.08;69.87;103605.75;5028370;28;20481;-71
2023/12/17 07:37:16;;;;;;;89.70;84.72;;;;;;;11.11;69.67;103609.94;5027167;28;20037;-71
2023/12/17 07:39:41;;;;;;;87.38;83.40;;;;;;;11.10;69.84;103603.69;5017436;28;20125;-71
2023/12/17 07:42:07;;;;;;;86.32;82.22;;;;;;;11.10;69.60;103598.28;5011600;28;20092;-71
2023/12/17 07:44:32;;;;;;;87.50;82.80;;;;;;;11.10;69.49;103605.56;5011716;28;20060;-71
2023/12/17 07:46:58;;;;;;;85.55;81.75;;;;;;;11.11;69.39;103602.66;5011829;28;20030;-71
2023/12/17 07:49:24;;;;;;;86.00;81.80;;;;;;;11.11;69.66;103604.53;5018980;28;20029;-71
2023/12/17 07:51:50;;;;;;;88.03;84.05;;;;;;;11.09;69.64;103610.16;5024006;28;20052;-71
2023/12/17 07:54:16;;;;;;;86.47;81.88;;;;;;;11.07;69.70;103600.53;5010139;28;20030;-71
2023/12/17 07:56:42;;;;;;;90.47;86.15;;;;;;;11.08;70.08;103610.31;5011476;28;20061;-71
2023/12/17 07:59:07;;;;;;;88.10;83.80;;;;;;;11.07;69.95;103609.47;5020958;28;20025;-70
2023/12/17 08:01:34;;;;;;;87.95;84.05;;;;;;;11.07;69.81;103603.22;5026122;28;20038;-71
2023/12/17 08:03:59;;;;;;;85.30;81.22;;;;;;;11.08;69.70;103607.59;5015282;28;20045;-71
2023/12/17 08:06:25;;;;;;;87.90;83.82;;;;;;;11.07;69.73;103608.63;5016226;28;20033;-72
2023/12/17 08:08:51;;;;;;;88.25;84.05;;;;;;;11.07;69.81;103611.34;5015424;28;20462;-71
2023/12/17 08:11:17;;;;;;;87.13;83.15;;;;;;;11.05;69.70;103601.53;5035016;28;20072;-72
2023/12/17 08:13:44;;;;;;;87.05;83.05;;;;;;;11.03;69.72;103598.16;5033320;28;20053;-72
2023/12/17 08:16:09;;;;;;;84.07;80.38;;;;;;;11.04;69.88;103609.84;5024093;28;20124;-73
2023/12/17 08:18:35;;;;;;;89.97;85.93;;;;;;;11.04;69.95;103609.84;5015465;28;20423;-71
2023/12/17 08:21:01;;;;;;;86.97;82.78;;;;;;;11.04;69.67;103620.66;5032953;28;20596;-72
2023/12/17 08:23:28;;;;;;;88.45;84.35;;;;;;;11.06;69.90;103618.59;5033046;28;20045;-71
2023/12/17 08:25:54;;;;;;;85.88;81.82;;;;;;;11.04;69.65;103613.38;5021416;28;20467;-71
2023/12/17 08:28:20;;;;;;;91.75;87.25;;;;;;;11.02;69.58;103618.09;5014522;28;20449;-72
2023/12/17 08:30:45;;;;;;;88.22;83.93;;;;;;;11.00;69.76;103612.03;5016698;28;20041;-71
2023/12/17 08:33:12;;;;;;;86.18;82.28;;;;;;;11.00;69.66;103619.31;5032391;28;20533;-71
2023/12/17 08:35:38;;;;;;;87.82;83.57;;;;;;;11.01;69.54;103627.25;5027751;28;20042;-71
2023/12/17 08:38:05;;;;;;;88.03;84.00;;;;;;;11.02;69.60;103618.09;5022647;28;20145;-71
2023/12/17 08:40:33;;;;;;;88.00;83.45;;;;;;;11.02;69.68;103618.09;5014389;28;20198;-70
2023/12/17 08:43:02;;;;;;;85.85;82.03;;;;;;;11.03;69.60;103616.25;5032001;28;20052;-71
2023/12/17 08:45:28;;;;;;;87.28;83.07;;;;;;;11.04;69.49;103618.78;5017901;28;20070;-72
2023/12/17 08:47:53;;;;;;;83.22;79.43;;;;;;;11.05;69.77;103622.31;5014529;28;20109;-71
2023/12/17 08:50:19;;;;;;;88.22;83.93;;;;;;;11.04;69.74;103616.09;5013921;28;20379;-71
2023/12/17 08:52:44;;;;;;;84.93;81.03;;;;;;;11.06;69.63;103621.28;4996320;28;20065;-71
2023/12/17 08:55:10;;;;;;;88.47;84.07;;;;;;;11.04;69.70;103616.09;5020915;28;20482;-71
2023/12/17 08:57:36;;;;;;;87.43;83.63;;;;;;;11.03;69.60;103621.66;5031799;28;20106;-70
2023/12/17 09:00:04;;;;;;;88.13;83.88;;;;;;;11.02;69.80;103619.97;5031590;28;20041;-70
2023/12/17 09:02:30;;;;;;;88.63;84.30;;;;;;;11.03;69.52;103625.19;5021401;28;20057;-70
2023/12/17 09:04:57;;;;;;;89.88;85.55;;;;;;;11.02;69.64;103623.53;5014353;28;20057;-71
2023/12/17 09:07:23;;;;;;;91.00;86.38;;;;;;;11.02;69.71;103623.53;5013728;28;20042;-71
2023/12/17 09:09:48;;;;;;;90.18;85.80;;;;;;;11.02;69.44;103630.81;5013051;28;20038;-71
2023/12/17 09:12:13;;;;;;;89.90;85.40;;;;;;;11.00;69.60;103627.41;5030834;28;20120;-71
2023/12/17 09:14:39;;;;;;;90.70;86.00;;;;;;;11.00;69.52;103633.66;5018678;28;20398;-73
2023/12/17 09:17:04;;;;;;;84.75;80.95;;;;;;;11.00;69.71;103624.72;5021653;28;20121;-72
2023/12/17 09:19:29;;;;;;;86.40;82.50;;;;;;;10.98;69.66;103635.69;5023511;28;20092;-71
2023/12/17 09:21:55;;;;;;;85.40;81.50;;;;;;;10.97;69.49;103636.72;5011226;28;20041;-70
2023/12/17 09:24:20;;;;;;;86.63;82.65;;;;;;;10.96;69.80;103637.75;5032121;28;20050;-71
2023/12/17 09:26:46;;;;;;;84.82;81.00;;;;;;;10.95;69.59;103622.53;5013544;28;20125;-71
2023/12/17 09:29:11;;;;;;;87.68;83.22;;;;;;;10.97;69.67;103633.19;5028963;28;20033;-71
2023/12/17 09:31:36;;;;;;;84.50;80.55;;;;;;;10.97;69.54;103625.06;5013452;28;20505;-72
2023/12/17 09:34:02;;;;;;;86.55;82.72;;;;;;;10.96;69.44;103629.66;5013419;28;20084;-71
2023/12/17 09:36:28;;;;;;;90.70;86.25;;;;;;;10.97;69.58;103633.19;5026915;28;20037;-70
2023/12/17 09:38:53;;;;;;;83.50;79.60;;;;;;;10.95;69.37;103638.75;5013713;28;20038;-70
2023/12/17 09:41:19;;;;;;;86.63;82.50;;;;;;;10.97;69.59;103641.28;5013506;28;20513;-70
2023/12/17 09:43:46;;;;;;;85.80;81.70;;;;;;;10.98;69.45;103642.97;5012416;28;20125;-70
2023/12/17 09:46:11;;;;;;;87.43;83.43;;;;;;;10.98;69.47;103645.69;5013636;28;20112;-71
2023/12/17 09:48:37;;;;;;;87.10;83.20;;;;;;;10.97;69.26;103641.28;5017341;28;20034;-71
2023/12/17 09:51:03;;;;;;;88.38;83.70;;;;;;;10.96;69.41;103631.47;5031656;28;20033;-70
2023/12/17 09:53:33;;;;;;;86.30;82.00;;;;;;;10.95;69.33;103630.66;5032402;28;20034;-71
2023/12/17 09:55:58;;;;;;;88.72;84.63;;;;;;;10.96;69.53;103636.88;5018351;28;20122;-70
2023/12/17 09:58:26;;;;;;;89.38;84.85;;;;;;;10.95;69.68;103632.50;5012749;28;20125;-71
2023/12/17 10:00:52;;;;;;;88.22;83.50;;;;;;;10.97;69.62;103639.44;5013134;28;20048;-72
2023/12/17 10:03:17;;;;;;;88.90;84.65;;;;;;;10.97;69.46;103633.19;5013171;28;20033;-71
2023/12/17 10:05:49;;;;;;;87.75;83.50;;;;;;;10.96;69.46;103648.56;5030554;28;20087;-70
2023/12/17 10:08:15;;;;;;;88.75;84.55;;;;;;;10.96;69.36;103640.47;5016941;28;20433;-70
2023/12/17 10:10:41;;;;;;;91.63;85.95;;;;;;;10.96;69.34;103640.47;5031286;28;20037;-70
2023/12/17 10:13:07;;;;;;;85.32;81.38;;;;;;;10.94;69.34;103642.50;5011022;28;20033;-71
2023/12/17 10:15:39;;;;;;;92.85;88.00;;;;;;;10.95;69.46;103648.72;5011254;28;20034;-72
2023/12/17 10:18:04;;;;;;;89.03;84.47;;;;;;;10.94;69.03;103641.66;5013133;28;20034;-71
2023/12/17 10:20:32;;;;;;;90.63;85.93;;;;;;;10.94;69.18;103661.41;5019116;28;20048;-71
2023/12/17 10:23:00;;;;;;;82.43;78.67;;;;;;;10.94;69.28;103653.31;5026933;28;20374;-71
2023/12/17 10:25:26;;;;;;;87.55;83.32;;;;;;;10.91;69.21;103655.50;5030654;28;20054;-71
2023/12/17 10:27:58;;;;;;;90.75;86.15;;;;;;;10.89;69.00;103644.03;5030957;28;20037;-72
2023/12/17 10:30:30;;;;;;;84.43;80.60;;;;;;;10.88;69.44;103645.88;5030127;28;20116;-71
2023/12/17 10:32:58;;;;;;;91.03;85.57;;;;;;;10.87;69.34;103641.50;5030659;28;20025;-72
2023/12/17 10:35:25;;;;;;;91.38;86.65;;;;;;;10.87;69.17;103637.94;5032063;28;20021;-71
2023/12/17 10:37:56;;;;;;;87.57;83.10;;;;;;;10.87;69.10;103633.38;5031141;28;20397;-71
2023/12/17 10:40:23;;;;;;;87.40;83.32;;;;;;;10.88;68.83;103632.34;5030909;28;20033;-71
2023/12/17 10:42:51;;;;;;;89.57;85.22;;;;;;;10.89;69.23;103623.25;5030541;28;20120;-71
2023/12/17 10:45:21;;;;;;;81.33;77.47;;;;;;;10.92;68.99;103608.53;5031501;28;20029;-70
2023/12/17 10:47:56;;;;;;;89.03;84.43;;;;;;;10.92;69.16;103612.06;5031368;28;20036;-69
2023/12/17 10:50:23;;;;;;;91.18;86.57;;;;;;;10.91;69.14;103604.13;5020122;28;20502;-72
2023/12/17 10:52:49;;;;;;;86.72;82.45;;;;;;;10.90;69.09;103603.28;5019543;28;20482;-70
2023/12/17 10:55:15;;;;;;;84.75;80.50;;;;;;;10.88;68.88;103602.59;5018843;28;20029;-70
2023/12/17 10:57:45;;;;;;;91.22;86.63;;;;;;;10.89;69.28;103598.06;5026241;28;20132;-71
2023/12/17 11:00:12;;;;;;;87.78;83.55;;;;;;;10.89;69.46;103590.78;5015868;28;20332;-71
2023/12/17 11:02:38;;;;;;;85.10;81.25;;;;;;;10.91;69.06;103586.06;5010383;28;20120;-70